Pagrindinis puslapis
METAR-TAF:

METAR-TAF

Oro uostai :

Altenburgas, Vokietija

platuma: 50-58N, ilguma: 012-30E, Aukštis: 195 m

Dabartinis oras

Ataskaita buvo paskelbta 18 minutes, ne 07:20 UTC
Vėjas 4 kt iš Pietų
Temperatūra -1°C
Drėgmė 86%
Slėgis 1020 hPa
Matomumas 10 km arba daugiau

METAR: EDAC 250720Z AUTO 18004KT 9999 // NCD M01/M03 Q1020

Laikas: 08:38 (07:38 UTC)

Prognozė

Ataskaita buvo paskelbta 17 valandos ir 38 minutes, ne 14:00 UTC
Prognozė galioja nuo 24 metu 15 UTC su 24 metu 24 UTC
Vėjas 6 kt iš Pietų
Matomumas 10 km arba daugiau
nėra debesų žemiau 1500 m ir nėra kamuolinių lietaus debesų
Tikimybė 30% :
Laikinai
nuo 24 metu 21 UTC su 24 metu 24 UTC
Matomumas: 1500 m
Rūkas lopais

TAF: EDAC 241400Z 2415/2424 19006KT CAVOK PROB30 TEMPO 2421/2424 1500 BCFG

Orai ataskaitas ir orų prognozės (METAR, TAF).

turimą stotys yra geltonos ir raudonos taškus žemėlapyje.

Perkelti pele per norėdami pamatyti stoties vardą.

Tada spustelėkite, norėdami matyti oro stebėjimo ir prognozės.

Norėdami pakeisti žemėlapį: spustelėkite ant žalios mygtukų su juodo kryžiaus žemyn,; žalią mygtuką su brūkšneliu, jei norite nutolinti; arba žalių rodyklių gretimoms žemėlapius.


METAR-TAF: